Time;durP1;ratioP1;P1;durP2;ratioP2;P2;SDS_P1;SDS_P2;PMS_P1;PMS_P2;Temp;Humidity;BMP_temperature;BMP_pressure;BME280_temperature;BME280_humidity;BME280_pressure;Samples;Min_cycle;Max_cycle;Signal;HPM_P1;HPM_P2
2023/07/08 00:03:00;;;;;;;10.02;5.63;;;;;;;;;;6190073;28;20130;-80
2023/07/08 00:06:01;;;;;;;11.35;6.30;;;;;;;;;;6206352;28;20041;-80
2023/07/08 00:09:10;;;;;;;10.15;5.80;;;;;;;;;;6206255;28;20058;-81
2023/07/08 00:12:12;;;;;;;9.85;6.28;;;;;;;;;;6211564;28;20042;-80
2023/07/08 00:15:15;;;;;;;10.00;5.28;;;;;;;;;;6193884;28;20073;-81
2023/07/08 00:18:18;;;;;;;10.65;5.38;;;;;;;;;;6215054;28;20045;-79
2023/07/08 00:21:20;;;;;;;;;;;;;;;;;;6210933;28;20133;-80
2023/07/08 00:24:21;;;;;;;11.55;5.47;;;;;;;;;;6210831;28;20415;-79
2023/07/08 00:27:23;;;;;;;11.00;5.45;;;;;;;;;;6207177;28;20046;-81
2023/07/08 00:30:27;;;;;;;10.20;5.85;;;;;;;;;;6214613;28;20042;-80
2023/07/08 00:33:28;;;;;;;8.57;5.47;;;;;;;;;;6213944;28;20041;-80
2023/07/08 00:36:31;;;;;;;8.70;5.30;;;;;;;;;;6212340;28;20054;-80
2023/07/08 00:39:32;;;;;;;11.25;6.05;;;;;;;;;;6199535;28;20203;-81
2023/07/08 00:42:34;;;;;;;11.50;5.70;;;;;;;;;;6213954;28;20519;-80
2023/07/08 00:45:45;;;;;;;9.07;5.32;;;;;;;;;;6207582;28;20125;-80
2023/07/08 00:49:07;;;;;;;9.70;5.13;;;;;;;;;;6209016;28;20042;-80
2023/07/08 00:52:27;;;;;;;7.68;5.05;;;;;;;;;;6211297;28;20048;-80
2023/07/08 00:55:28;;;;;;;9.50;5.55;;;;;;;;;;6225328;28;20081;-80
2023/07/08 00:58:44;;;;;;;10.95;5.78;;;;;;;;;;6211129;28;20049;-80
2023/07/08 01:01:46;;;;;;;10.10;5.38;;;;;;;;;;6208082;28;20046;-80
2023/07/08 01:05:25;;;;;;;9.40;5.53;;;;;;;;;;6210675;28;20038;-80
2023/07/08 01:08:28;;;;;;;8.82;5.60;;;;;;;;;;6107599;28;20047;-80
2023/07/08 01:11:32;;;;;;;9.80;6.47;;;;;;;;;;6190910;28;20523;-80
2023/07/08 01:14:35;;;;;;;11.95;5.93;;;;;;;;;;6193296;28;20415;-80
2023/07/08 01:17:37;;;;;;;9.88;5.93;;;;;;;;;;6209770;28;20061;-80
2023/07/08 01:20:39;;;;;;;8.30;5.30;;;;;;;;;;6199882;28;20045;-80
2023/07/08 01:23:41;;;;;;;8.30;4.95;;;;;;;;;;6197692;28;20416;-80
2023/07/08 01:26:45;;;;;;;10.88;5.57;;;;;;;;;;6208778;28;20104;-80
2023/07/08 01:29:47;;;;;;;9.85;5.85;;;;;;;;;;6193123;28;20073;-81
2023/07/08 01:32:54;;;;;;;8.23;4.95;;;;;;;;;;6210125;28;20081;-80
2023/07/08 01:35:56;;;;;;;7.88;5.25;;;;;;;;;;6205006;28;20128;-80
2023/07/08 01:38:59;;;;;;;8.90;5.07;;;;;;;;;;6189246;28;20042;-80
2023/07/08 01:42:01;;;;;;;9.48;5.30;;;;;;;;;;6194863;28;20053;-80
2023/07/08 01:45:10;;;;;;;8.95;5.47;;;;;;;;;;6191604;28;20453;-79
2023/07/08 01:48:19;;;;;;;9.98;5.35;;;;;;;;;;6206394;28;20041;-81
2023/07/08 01:51:22;;;;;;;10.48;5.50;;;;;;;;;;6199160;28;20046;-80
2023/07/08 01:54:24;;;;;;;8.60;5.35;;;;;;;;;;6207655;28;20056;-80
2023/07/08 01:57:26;;;;;;;10.80;6.32;;;;;;;;;;6213038;28;20061;-81
2023/07/08 02:00:28;;;;;;;8.73;5.47;;;;;;;;;;6207808;28;20041;-79
2023/07/08 02:03:30;;;;;;;8.13;4.83;;;;;;;;;;6224945;28;20038;-80
2023/07/08 02:06:32;;;;;;;9.02;4.95;;;;;;;;;;6185391;28;20051;-80
2023/07/08 02:09:40;;;;;;;10.80;6.05;;;;;;;;;;6206727;28;20058;-80
2023/07/08 02:12:42;;;;;;;9.57;5.03;;;;;;;;;;6199062;28;20620;-81
2023/07/08 02:15:43;;;;;;;10.07;5.32;;;;;;;;;;6207315;28;20084;-80
2023/07/08 02:18:45;;;;;;;8.32;5.20;;;;;;;;;;6222490;28;20041;-80
2023/07/08 02:21:47;;;;;;;9.57;5.40;;;;;;;;;;6211412;28;20053;-80
2023/07/08 02:24:48;;;;;;;10.65;5.45;;;;;;;;;;6197788;28;20046;-80
2023/07/08 02:27:50;;;;;;;9.77;5.30;;;;;;;;;;6211130;28;20065;-80
2023/07/08 02:30:52;;;;;;;9.40;4.95;;;;;;;;;;6198981;28;20046;-80
2023/07/08 02:33:54;;;;;;;9.35;5.63;;;;;;;;;;6211862;28;20105;-80
2023/07/08 02:36:56;;;;;;;8.70;5.05;;;;;;;;;;6210644;28;20045;-79
2023/07/08 02:39:58;;;;;;;7.60;4.77;;;;;;;;;;6205851;28;20045;-80
2023/07/08 02:42:59;;;;;;;6.82;4.65;;;;;;;;;;6208024;28;20046;-80
2023/07/08 02:46:01;;;;;;;9.02;5.20;;;;;;;;;;6202803;28;20039;-79
2023/07/08 02:49:04;;;;;;;9.40;5.15;;;;;;;;;;6207771;28;20049;-80
2023/07/08 02:52:06;;;;;;;10.10;5.60;;;;;;;;;;6208541;28;20396;-80
2023/07/08 02:55:08;;;;;;;7.30;4.43;;;;;;;;;;6204405;28;20042;-80
2023/07/08 02:58:10;;;;;;;8.43;4.88;;;;;;;;;;6210424;28;20033;-79
2023/07/08 03:01:11;;;;;;;8.57;5.05;;;;;;;;;;6205462;28;20397;-80
2023/07/08 03:04:14;;;;;;;8.25;5.18;;;;;;;;;;6208205;28;20049;-81
2023/07/08 03:07:16;;;;;;;9.40;5.38;;;;;;;;;;6207232;28;20500;-80
2023/07/08 03:10:18;;;;;;;9.65;5.53;;;;;;;;;;6192132;28;20120;-80
2023/07/08 03:13:19;;;;;;;8.25;5.00;;;;;;;;;;6207731;28;20120;-78
2023/07/08 03:16:21;;;;;;;7.35;5.18;;;;;;;;;;6196944;28;20050;-79
2023/07/08 03:19:24;;;;;;;11.45;5.13;;;;;;;;;;6213352;28;20712;-77
2023/07/08 03:22:26;;;;;;;7.32;4.97;;;;;;;;;;6205138;28;20172;-79
2023/07/08 03:25:28;;;;;;;6.95;4.68;;;;;;;;;;6204961;28;20423;-78
2023/07/08 03:28:31;;;;;;;6.38;4.63;;;;;;;;;;6207223;28;20068;-77
2023/07/08 03:31:32;;;;;;;7.68;4.85;;;;;;;;;;6203991;28;20041;-78
2023/07/08 03:34:35;;;;;;;7.18;4.90;;;;;;;;;;6198500;28;20052;-79
2023/07/08 03:37:36;;;;;;;8.95;4.97;;;;;;;;;;6186195;28;20413;-78
2023/07/08 03:40:39;;;;;;;8.35;5.43;;;;;;;;;;6204832;28;20045;-78
2023/07/08 03:43:40;;;;;;;7.85;4.97;;;;;;;;;;6203116;28;20487;-78
2023/07/08 03:46:51;;;;;;;8.07;5.28;;;;;;;;;;6188273;28;20509;-78
2023/07/08 03:49:54;;;;;;;8.18;5.03;;;;;;;;;;6215199;28;20049;-77
2023/07/08 03:52:56;;;;;;;8.98;5.10;;;;;;;;;;6211818;28;20049;-78
2023/07/08 03:56:02;;;;;;;8.88;5.30;;;;;;;;;;6203955;28;20421;-77
2023/07/08 03:59:05;;;;;;;8.57;5.00;;;;;;;;;;6204292;28;20042;-79
2023/07/08 04:02:11;;;;;;;6.22;4.70;;;;;;;;;;6210002;28;20100;-79
2023/07/08 04:05:19;;;;;;;9.65;5.05;;;;;;;;;;6191453;28;20041;-78
2023/07/08 04:08:20;;;;;;;10.38;5.15;;;;;;;;;;6209542;28;20459;-79
2023/07/08 04:11:23;;;;;;;8.45;4.80;;;;;;;;;;6207498;28;20038;-78
2023/07/08 04:14:25;;;;;;;;;;;;;;;;;;6209521;28;20125;-78
2023/07/08 04:17:27;;;;;;;8.02;5.15;;;;;;;;;;6192422;28;19960;-79
2023/07/08 04:20:29;;;;;;;7.85;5.13;;;;;;;;;;6210133;28;20045;-78
2023/07/08 04:23:31;;;;;;;10.90;5.18;;;;;;;;;;6199581;28;20530;-78
2023/07/08 04:26:35;;;;;;;9.38;5.00;;;;;;;;;;6207216;28;20046;-78
2023/07/08 04:29:37;;;;;;;7.57;4.93;;;;;;;;;;6208710;28;20046;-79
2023/07/08 04:32:38;;;;;;;8.25;5.18;;;;;;;;;;6198760;28;20517;-80
2023/07/08 04:35:43;;;;;;;8.73;5.15;;;;;;;;;;6209464;28;20042;-77
2023/07/08 04:38:46;;;;;;;;;;;;;;;;;;6211200;28;20080;-78
2023/07/08 04:41:49;;;;;;;8.15;5.28;;;;;;;;;;6210816;28;19944;-78
2023/07/08 04:44:51;;;;;;;10.68;5.60;;;;;;;;;;6201229;28;20052;-78
2023/07/08 04:47:53;;;;;;;9.30;5.55;;;;;;;;;;6189114;28;20045;-78
2023/07/08 04:50:55;;;;;;;8.05;5.50;;;;;;;;;;6210866;28;20056;-79
2023/07/08 04:53:56;;;;;;;7.80;5.32;;;;;;;;;;6207951;28;20523;-78
2023/07/08 04:56:58;;;;;;;9.77;5.28;;;;;;;;;;6207325;28;20049;-78
2023/07/08 05:00:00;;;;;;;8.88;5.53;;;;;;;;;;6209564;28;20424;-78
2023/07/08 05:03:03;;;;;;;11.05;5.93;;;;;;;;;;6195407;28;20049;-78
2023/07/08 05:06:04;;;;;;;11.77;6.55;;;;;;;;;;6221120;28;20322;-78
2023/07/08 05:09:06;;;;;;;9.95;5.75;;;;;;;;;;6205121;28;20065;-78
2023/07/08 05:12:08;;;;;;;8.73;5.63;;;;;;;;;;6206029;28;20100;-77
2023/07/08 05:15:10;;;;;;;9.00;5.15;;;;;;;;;;6205766;28;20524;-78
2023/07/08 05:18:11;;;;;;;12.40;5.60;;;;;;;;;;6208841;28;20136;-77
2023/07/08 05:21:14;;;;;;;8.02;5.25;;;;;;;;;;6187681;28;20145;-79
2023/07/08 05:24:16;;;;;;;10.32;5.85;;;;;;;;;;6204233;28;20150;-76
2023/07/08 05:27:18;;;;;;;9.60;6.10;;;;;;;;;;6209107;28;20045;-76
2023/07/08 05:30:20;;;;;;;8.52;5.70;;;;;;;;;;6203184;28;20137;-76
2023/07/08 05:33:23;;;;;;;9.27;5.82;;;;;;;;;;6202206;28;20049;-76
2023/07/08 05:36:25;;;;;;;8.20;5.05;;;;;;;;;;6207776;28;20041;-76
2023/07/08 05:39:26;;;;;;;9.30;5.70;;;;;;;;;;6207693;28;20071;-76
2023/07/08 05:42:28;;;;;;;8.65;5.13;;;;;;;;;;6207380;28;20472;-77
2023/07/08 05:45:30;;;;;;;8.77;5.40;;;;;;;;;;6205857;28;20552;-78
2023/07/08 05:48:31;;;;;;;9.02;5.43;;;;;;;;;;6205349;28;20522;-78
2023/07/08 05:51:34;;;;;;;10.18;6.45;;;;;;;;;;6211484;28;20119;-78
2023/07/08 05:54:36;;;;;;;8.53;5.63;;;;;;;;;;6208079;28;20056;-77
2023/07/08 05:57:38;;;;;;;8.55;5.53;;;;;;;;;;6207291;28;20042;-77
2023/07/08 06:00:42;;;;;;;7.53;5.45;;;;;;;;;;6189640;28;20128;-76
2023/07/08 06:03:44;;;;;;;7.20;5.07;;;;;;;;;;6204074;28;20069;-78
2023/07/08 06:06:47;;;;;;;;;;;;;;;;;;6204467;28;20042;-76
2023/07/08 06:09:51;;;;;;;7.30;5.28;;;;;;;;;;6206494;28;19929;-76
2023/07/08 06:12:54;;;;;;;6.88;5.10;;;;;;;;;;6198406;28;20116;-77
2023/07/08 06:15:57;;;;;;;;;;;;;;;;;;6196769;28;20074;-77
2023/07/08 06:19:00;;;;;;;7.73;5.47;;;;;;;;;;6206688;28;19921;-77
2023/07/08 06:22:02;;;;;;;7.22;4.90;;;;;;;;;;6188975;28;20484;-76
2023/07/08 06:25:24;;;;;;;6.80;4.53;;;;;;;;;;6206614;28;20056;-76
2023/07/08 06:28:26;;;;;;;6.30;4.73;;;;;;;;;;6220690;28;20634;-77
2023/07/08 06:31:28;;;;;;;5.07;4.07;;;;;;;;;;6200361;28;20460;-77
2023/07/08 06:34:30;;;;;;;6.15;4.05;;;;;;;;;;6196889;28;20053;-77
2023/07/08 06:37:32;;;;;;;5.90;4.05;;;;;;;;;;6207505;28;20046;-78
2023/07/08 06:40:34;;;;;;;6.05;4.53;;;;;;;;;;6202358;28;20145;-76
2023/07/08 06:43:35;;;;;;;7.25;4.90;;;;;;;;;;6204123;28;20057;-77
2023/07/08 06:46:50;;;;;;;5.47;4.22;;;;;;;;;;6203441;28;20046;-78
2023/07/08 06:49:52;;;;;;;7.40;4.10;;;;;;;;;;6208363;28;20095;-77
2023/07/08 06:52:54;;;;;;;8.95;4.18;;;;;;;;;;6203384;28;20054;-76
2023/07/08 06:55:56;;;;;;;7.03;4.50;;;;;;;;;;6189851;28;20053;-76
2023/07/08 06:58:57;;;;;;;6.10;4.15;;;;;;;;;;6204828;28;20062;-77
2023/07/08 07:01:59;;;;;;;6.93;4.30;;;;;;;;;;6202654;28;20112;-80
2023/07/08 07:05:02;;;;;;;6.53;4.10;;;;;;;;;;6206971;28;20046;-75
2023/07/08 07:08:04;;;;;;;5.05;4.22;;;;;;;;;;6200571;28;20192;-77
2023/07/08 07:11:06;;;;;;;4.70;3.50;;;;;;;;;;6203087;28;20088;-78
2023/07/08 07:14:08;;;;;;;5.93;4.20;;;;;;;;;;6207832;28;20754;-78
2023/07/08 07:17:12;;;;;;;9.55;4.00;;;;;;;;;;6186111;28;20528;-78
2023/07/08 07:20:14;;;;;;;6.28;3.97;;;;;;;;;;6201519;28;20042;-79
2023/07/08 07:23:16;;;;;;;6.40;3.93;;;;;;;;;;6202730;28;20053;-78
2023/07/08 07:26:18;;;;;;;4.40;3.70;;;;;;;;;;6196970;28;20515;-80
2023/07/08 07:29:22;;;;;;;5.03;3.80;;;;;;;;;;6208438;28;20120;-79
2023/07/08 07:32:24;;;;;;;5.07;3.30;;;;;;;;;;6205524;28;20037;-79
2023/07/08 07:35:26;;;;;;;6.00;3.53;;;;;;;;;;6212287;28;20042;-78
2023/07/08 07:38:28;;;;;;;5.30;4.10;;;;;;;;;;6211979;28;20053;-78
2023/07/08 07:41:30;;;;;;;5.75;3.60;;;;;;;;;;6234157;28;20049;-79
2023/07/08 07:44:32;;;;;;;5.13;3.47;;;;;;;;;;6206728;28;20504;-81
2023/07/08 07:47:34;;;;;;;4.68;3.78;;;;;;;;;;6206669;28;20077;-79
2023/07/08 07:50:38;;;;;;;5.63;3.92;;;;;;;;;;6186481;28;20053;-79
2023/07/08 07:53:39;;;;;;;4.88;3.80;;;;;;;;;;6203493;28;20123;-82
2023/07/08 07:56:41;;;;;;;4.97;3.80;;;;;;;;;;6202667;28;20113;-81
2023/07/08 07:59:43;;;;;;;5.13;3.90;;;;;;;;;;6203013;28;20078;-78
2023/07/08 08:02:44;;;;;;;5.23;3.30;;;;;;;;;;6206141;28;20508;-78
2023/07/08 08:05:47;;;;;;;6.05;3.75;;;;;;;;;;6207844;28;20088;-78
2023/07/08 08:08:49;;;;;;;;;;;;;;;;;;6208660;28;20570;-77
2023/07/08 08:11:51;;;;;;;4.38;3.95;;;;;;;;;;6208206;28;19928;-77
2023/07/08 08:14:53;;;;;;;5.40;3.88;;;;;;;;;;6195969;28;20340;-77
2023/07/08 08:17:55;;;;;;;5.80;3.60;;;;;;;;;;6183584;28;20070;-76
2023/07/08 08:20:57;;;;;;;7.72;4.13;;;;;;;;;;6203652;28;20049;-77
2023/07/08 08:24:00;;;;;;;5.47;3.80;;;;;;;;;;6207528;28;20042;-79
2023/07/08 08:27:02;;;;;;;5.03;3.90;;;;;;;;;;6195131;28;20053;-79
2023/07/08 08:30:05;;;;;;;6.22;3.75;;;;;;;;;;6204520;28;20042;-79
2023/07/08 08:33:07;;;;;;;5.95;4.22;;;;;;;;;;6204431;28;20049;-81
2023/07/08 08:36:09;;;;;;;5.35;3.80;;;;;;;;;;6195197;28;20042;-79
2023/07/08 08:39:10;;;;;;;5.77;3.83;;;;;;;;;;6206059;28;20096;-80
2023/07/08 08:42:33;;;;;;;8.38;4.45;;;;;;;;;;6209286;28;20070;-80
2023/07/08 08:46:14;;;;;;;5.55;4.10;;;;;;;;;;6221824;28;20496;-79
2023/07/08 08:49:47;;;;;;;6.25;4.20;;;;;;;;;;6209860;28;20046;-80
2023/07/08 08:52:48;;;;;;;7.60;4.30;;;;;;;;;;6207679;28;20126;-80
2023/07/08 08:56:05;;;;;;;4.75;4.03;;;;;;;;;;6210807;28;20050;-79
2023/07/08 08:59:09;;;;;;;5.45;4.00;;;;;;;;;;6211223;28;20041;-80
2023/07/08 09:02:42;;;;;;;6.05;4.10;;;;;;;;;;6213587;28;20045;-80
2023/07/08 09:05:45;;;;;;;4.32;3.67;;;;;;;;;;6208265;28;20046;-79
2023/07/08 09:08:50;;;;;;;5.55;4.20;;;;;;;;;;6228920;28;20053;-79
2023/07/08 09:12:00;;;;;;;5.40;4.30;;;;;;;;;;6213269;28;20043;-81
2023/07/08 09:15:13;;;;;;;6.05;4.13;;;;;;;;;;6205202;28;20089;-79
2023/07/08 09:18:23;;;;;;;5.53;4.15;;;;;;;;;;6201932;28;20050;-79
2023/07/08 09:21:43;;;;;;;6.03;4.57;;;;;;;;;;6209274;28;20627;-80
2023/07/08 09:24:51;;;;;;;7.07;4.03;;;;;;;;;;6192381;28;20507;-80
2023/07/08 09:27:53;;;;;;;6.13;4.40;;;;;;;;;;6201621;28;20038;-80
2023/07/08 09:30:55;;;;;;;4.38;3.85;;;;;;;;;;6211409;28;20123;-81
2023/07/08 09:34:16;;;;;;;5.28;4.05;;;;;;;;;;6213567;28;20390;-80
2023/07/08 09:37:31;;;;;;;6.18;4.18;;;;;;;;;;6211043;28;20125;-79
2023/07/08 09:40:33;;;;;;;6.10;4.68;;;;;;;;;;6198910;28;20536;-82
2023/07/08 09:43:38;;;;;;;7.82;4.75;;;;;;;;;;6212994;28;20050;-81
2023/07/08 09:46:40;;;;;;;5.57;4.45;;;;;;;;;;6209473;28;20196;-82
2023/07/08 09:49:44;;;;;;;7.82;4.30;;;;;;;;;;6200671;28;20081;-79
2023/07/08 09:52:50;;;;;;;5.82;4.30;;;;;;;;;;6201761;28;20129;-82
2023/07/08 09:55:52;;;;;;;5.50;4.10;;;;;;;;;;6206356;28;20042;-81
2023/07/08 09:58:54;;;;;;;5.38;3.85;;;;;;;;;;6214085;28;20123;-82
2023/07/08 10:01:56;;;;;;;5.65;3.95;;;;;;;;;;6214746;28;20135;-82
2023/07/08 10:05:05;;;;;;;;;;;;;;;;;;6216885;28;20057;-82
2023/07/08 10:08:15;;;;;;;6.10;4.10;;;;;;;;;;6218698;28;19925;-81
2023/07/08 10:11:17;;;;;;;5.00;4.07;;;;;;;;;;6217333;28;20045;-82
2023/07/08 10:14:42;;;;;;;6.43;4.00;;;;;;;;;;6216274;28;20396;-81
2023/07/08 10:17:44;;;;;;;5.13;4.30;;;;;;;;;;6194464;28;20054;-81
2023/07/08 10:21:04;;;;;;;4.88;3.75;;;;;;;;;;6214215;28;20052;-82
2023/07/08 10:24:24;;;;;;;5.97;3.95;;;;;;;;;;6208996;28;20104;-80
2023/07/08 10:27:43;;;;;;;4.68;3.70;;;;;;;;;;6209197;28;20125;-81
2023/07/08 10:30:56;;;;;;;5.30;4.00;;;;;;;;;;6207416;28;20050;-80
2023/07/08 10:34:23;;;;;;;5.65;3.80;;;;;;;;;;6210434;28;20054;-78
2023/07/08 10:37:40;;;;;;;5.45;4.22;;;;;;;;;;6213024;28;20094;-83
2023/07/08 10:40:54;;;;;;;5.78;4.45;;;;;;;;;;6211487;28;20641;-83
2023/07/08 10:44:12;;;;;;;6.03;4.47;;;;;;;;;;6210355;28;20057;-82
2023/07/08 10:47:24;;;;;;;6.18;4.68;;;;;;;;;;6202987;28;20049;-82
2023/07/08 10:50:44;;;;;;;;;;;;;;;;;;6209367;28;20057;-81
2023/07/08 10:54:17;;;;;;;5.95;4.55;;;;;;;;;;6205045;28;19933;-80
2023/07/08 10:57:35;;;;;;;6.57;4.45;;;;;;;;;;6199596;28;20050;-81
2023/07/08 11:01:03;;;;;;;4.75;4.25;;;;;;;;;;6203645;28;20050;-80
2023/07/08 11:04:37;;;;;;;5.30;4.18;;;;;;;;;;6201774;28;20046;-82
2023/07/08 11:07:39;;;;;;;5.55;4.22;;;;;;;;;;6208427;28;20092;-82
2023/07/08 11:10:48;;;;;;;5.10;3.90;;;;;;;;;;6208632;28;20883;-83
2023/07/08 11:14:01;;;;;;;5.70;4.38;;;;;;;;;;6203255;28;20049;-82
2023/07/08 11:17:43;;;;;;;4.85;4.25;;;;;;;;;;6202370;28;20046;-83
2023/07/08 11:20:55;;;;;;;4.75;3.65;;;;;;;;;;6175090;28;20702;-82
2023/07/08 11:24:04;;;;;;;6.20;4.38;;;;;;;;;;6184167;28;20077;-83
2023/07/08 11:27:18;;;;;;;5.88;4.35;;;;;;;;;;6204531;28;20143;-82
2023/07/08 11:30:24;;;;;;;5.32;4.25;;;;;;;;;;6204194;28;20109;-82
2023/07/08 11:33:27;;;;;;;6.60;4.70;;;;;;;;;;6206444;28;20049;-82
2023/07/08 11:36:30;;;;;;;6.38;4.80;;;;;;;;;;6207900;28;20712;-82
2023/07/08 11:39:43;;;;;;;6.57;4.75;;;;;;;;;;6210378;28;20085;-82
2023/07/08 11:42:49;;;;;;;7.15;5.13;;;;;;;;;;6210784;28;20041;-81
2023/07/08 11:46:06;;;;;;;7.13;4.57;;;;;;;;;;6204057;28;20061;-83
2023/07/08 11:49:13;;;;;;;6.90;4.80;;;;;;;;;;6208382;28;20074;-82
2023/07/08 11:52:19;;;;;;;7.13;5.13;;;;;;;;;;6205358;28;20085;-84
2023/07/08 11:55:36;;;;;;;7.38;4.90;;;;;;;;;;6216549;28;20041;-83
2023/07/08 11:59:18;;;;;;;6.60;4.50;;;;;;;;;;6213163;28;20524;-83
2023/07/08 12:02:22;;;;;;;5.43;4.43;;;;;;;;;;6209868;28;20041;-84
2023/07/08 12:05:35;;;;;;;5.32;4.40;;;;;;;;;;6206821;28;20530;-82
2023/07/08 12:08:39;;;;;;;6.15;4.50;;;;;;;;;;6214967;28;20462;-80
2023/07/08 12:11:47;;;;;;;6.00;4.57;;;;;;;;;;6229600;28;20038;-81
2023/07/08 12:14:50;;;;;;;7.85;4.68;;;;;;;;;;6195449;28;20050;-81
2023/07/08 12:17:57;;;;;;;8.52;4.40;;;;;;;;;;6203926;28;20168;-80
2023/07/08 12:21:01;;;;;;;6.35;3.67;;;;;;;;;;6184067;28;20447;-80
2023/07/08 12:24:05;;;;;;;6.55;3.75;;;;;;;;;;6211601;28;20042;-81
2023/07/08 12:27:09;;;;;;;8.18;4.30;;;;;;;;;;6224734;28;20073;-82
2023/07/08 12:30:12;;;;;;;5.72;4.30;;;;;;;;;;6224556;28;20102;-82
2023/07/08 12:33:18;;;;;;;6.18;4.97;;;;;;;;;;6211053;28;20057;-81
2023/07/08 12:36:27;;;;;;;6.40;4.50;;;;;;;;;;6220402;28;20046;-81
2023/07/08 12:39:33;;;;;;;7.40;4.35;;;;;;;;;;6215078;28;20088;-81
2023/07/08 12:42:35;;;;;;;8.07;4.97;;;;;;;;;;6216362;28;20052;-80
2023/07/08 12:45:36;;;;;;;;;;;;;;;;;;6218901;28;20493;-81
2023/07/08 12:48:39;;;;;;;9.65;4.65;;;;;;;;;;6217264;28;19925;-82
2023/07/08 12:51:44;;;;;;;7.63;4.97;;;;;;;;;;6220718;28;20060;-81
2023/07/08 12:54:45;;;;;;;6.03;4.90;;;;;;;;;;6213469;28;20509;-82
2023/07/08 12:57:48;;;;;;;;;;;;;;;;;;6219491;28;20100;-80
2023/07/08 13:00:50;;;;;;;7.38;4.95;;;;;;;;;;6219848;28;19976;-79
2023/07/08 13:03:58;;;;;;;10.23;4.88;;;;;;;;;;6220244;28;20057;-79
2023/07/08 13:07:00;;;;;;;7.40;4.68;;;;;;;;;;6205855;28;20408;-80
2023/07/08 13:10:07;;;;;;;6.25;4.85;;;;;;;;;;6215241;28;20041;-80
2023/07/08 13:13:21;;;;;;;6.10;4.75;;;;;;;;;;6206815;28;20042;-80
2023/07/08 13:16:33;;;;;;;6.85;4.57;;;;;;;;;;6206464;28;20107;-79
2023/07/08 13:19:35;;;;;;;10.13;5.43;;;;;;;;;;6231965;28;20066;-79
2023/07/08 13:22:37;;;;;;;7.68;4.95;;;;;;;;;;6211024;28;20075;-79
2023/07/08 13:25:39;;;;;;;9.65;5.72;;;;;;;;;;6181898;28;20125;-79
2023/07/08 13:28:41;;;;;;;7.18;4.97;;;;;;;;;;6203285;28;20066;-79
2023/07/08 13:32:05;;;;;;;6.38;5.00;;;;;;;;;;6203599;28;20131;-79
2023/07/08 13:35:40;;;;;;;7.95;5.65;;;;;;;;;;6203887;28;20048;-78
2023/07/08 13:38:43;;;;;;;7.40;4.93;;;;;;;;;;6198821;28;20066;-78
2023/07/08 13:41:46;;;;;;;7.25;5.47;;;;;;;;;;6218291;28;20057;-79
2023/07/08 13:44:48;;;;;;;7.50;4.85;;;;;;;;;;6211205;28;20054;-80
2023/07/08 13:48:14;;;;;;;7.60;5.30;;;;;;;;;;6208427;28;20131;-80
2023/07/08 13:51:22;;;;;;;7.55;5.30;;;;;;;;;;6209145;28;20599;-80
2023/07/08 13:54:34;;;;;;;7.10;5.20;;;;;;;;;;6208800;28;20072;-81
2023/07/08 13:57:39;;;;;;;7.32;5.43;;;;;;;;;;6213035;28;20049;-81
2023/07/08 14:00:41;;;;;;;7.45;5.47;;;;;;;;;;6199429;28;20053;-82
2023/07/08 14:03:42;;;;;;;8.30;5.80;;;;;;;;;;6214410;28;20053;-82
2023/07/08 14:06:44;;;;;;;7.93;5.53;;;;;;;;;;6210577;28;20062;-81
2023/07/08 14:09:47;;;;;;;6.68;5.07;;;;;;;;;;6202630;28;20049;-82
2023/07/08 14:12:48;;;;;;;10.65;5.30;;;;;;;;;;6225596;28;20054;-84
2023/07/08 14:15:50;;;;;;;7.80;5.50;;;;;;;;;;6224174;28;20046;-85
2023/07/08 14:18:52;;;;;;;7.15;5.60;;;;;;;;;;6223806;28;20330;-84
2023/07/08 14:22:00;;;;;;;7.38;5.20;;;;;;;;;;6221674;28;20049;-83
2023/07/08 14:25:08;;;;;;;7.28;5.28;;;;;;;;;;6219551;28;20062;-86
2023/07/08 14:28:10;;;;;;;7.03;5.30;;;;;;;;;;6220341;28;20420;-83
2023/07/08 14:31:15;;;;;;;8.63;5.47;;;;;;;;;;6195708;28;20069;-84
2023/07/08 14:34:24;;;;;;;9.68;5.75;;;;;;;;;;6233040;28;20124;-86
2023/07/08 14:37:26;;;;;;;6.43;5.18;;;;;;;;;;6220802;28;20108;-84
2023/07/08 14:40:39;;;;;;;9.88;5.10;;;;;;;;;;6215181;28;20049;-83
2023/07/08 14:43:41;;;;;;;7.20;5.13;;;;;;;;;;6217649;28;20050;-86
2023/07/08 14:46:42;;;;;;;7.20;5.20;;;;;;;;;;6213526;28;20042;-84
2023/07/08 14:49:45;;;;;;;8.57;5.22;;;;;;;;;;6218551;28;20108;-84
2023/07/08 14:52:47;;;;;;;8.45;5.18;;;;;;;;;;6217763;28;20034;-84
2023/07/08 14:55:51;;;;;;;7.88;5.28;;;;;;;;;;6221535;28;20058;-83
2023/07/08 14:58:53;;;;;;;8.52;4.88;;;;;;;;;;6209356;28;20053;-84
2023/07/08 15:01:57;;;;;;;7.10;4.80;;;;;;;;;;6217569;28;20049;-84
2023/07/08 15:04:59;;;;;;;9.70;5.40;;;;;;;;;;6211338;28;20049;-84
2023/07/08 15:08:00;;;;;;;6.88;5.05;;;;;;;;;;6221095;28;20053;-85
2023/07/08 15:11:06;;;;;;;7.85;5.40;;;;;;;;;;6216356;28;20042;-84
2023/07/08 15:14:26;;;;;;;7.53;5.25;;;;;;;;;;6217704;28;20050;-84
2023/07/08 15:17:28;;;;;;;6.10;5.07;;;;;;;;;;6219659;28;20105;-83
2023/07/08 15:20:32;;;;;;;8.20;5.40;;;;;;;;;;6216257;28;20038;-85
2023/07/08 15:23:33;;;;;;;6.47;5.07;;;;;;;;;;6221390;28;20056;-84
2023/07/08 15:26:35;;;;;;;6.82;5.10;;;;;;;;;;6217199;28;20045;-86
2023/07/08 15:29:37;;;;;;;9.25;5.28;;;;;;;;;;6220982;28;20050;-85
2023/07/08 15:32:38;;;;;;;7.60;5.25;;;;;;;;;;6212464;28;20443;-84
2023/07/08 15:35:43;;;;;;;6.38;4.93;;;;;;;;;;6216115;28;20056;-84
2023/07/08 15:38:45;;;;;;;7.78;5.15;;;;;;;;;;6213642;28;20046;-85
2023/07/08 15:41:46;;;;;;;6.80;4.78;;;;;;;;;;6215425;28;20046;-83
2023/07/08 15:44:52;;;;;;;7.75;4.97;;;;;;;;;;6218942;28;20061;-86
2023/07/08 15:47:54;;;;;;;7.43;5.20;;;;;;;;;;6222765;28;20053;-84
2023/07/08 15:50:56;;;;;;;9.15;5.25;;;;;;;;;;6201022;28;20038;-83
2023/07/08 15:53:57;;;;;;;8.88;5.32;;;;;;;;;;6221736;28;20065;-85
2023/07/08 15:56:59;;;;;;;8.80;5.00;;;;;;;;;;6228146;28;20046;-84
2023/07/08 16:00:01;;;;;;;6.88;5.15;;;;;;;;;;6227752;28;20053;-82
2023/07/08 16:03:25;;;;;;;8.45;5.40;;;;;;;;;;6223075;28;20078;-83
2023/07/08 16:06:26;;;;;;;6.70;4.80;;;;;;;;;;6220824;28;20050;-84
2023/07/08 16:09:28;;;;;;;;;;;;;;;;;;6206452;28;20045;-84
2023/07/08 16:12:30;;;;;;;6.45;4.78;;;;;;;;;;6228771;28;19921;-85
2023/07/08 16:15:36;;;;;;;6.47;5.00;;;;;;;;;;6206326;28;20041;-83
2023/07/08 16:18:38;;;;;;;11.75;9.52;;;;;;;;;;6221472;28;20194;-81
2023/07/08 16:21:40;;;;;;;7.78;5.13;;;;;;;;;;6222897;28;20069;-83
2023/07/08 16:24:42;;;;;;;6.55;4.60;;;;;;;;;;6225661;28;20050;-83
2023/07/08 16:27:47;;;;;;;6.38;4.65;;;;;;;;;;6225883;28;20055;-84
2023/07/08 16:30:49;;;;;;;10.48;5.38;;;;;;;;;;6218124;28;20033;-84
2023/07/08 16:33:51;;;;;;;6.82;5.32;;;;;;;;;;6223508;28;20137;-83
2023/07/08 16:36:52;;;;;;;;;;;;;;;;;;6220746;28;20042;-82
2023/07/08 16:39:55;;;;;;;7.57;5.30;;;;;;;;;;6224332;28;19985;-82
2023/07/08 16:42:57;;;;;;;9.88;5.75;;;;;;;;;;6230610;28;20046;-84
2023/07/08 16:45:59;;;;;;;7.82;5.63;;;;;;;;;;6227074;28;20056;-82
2023/07/08 16:49:01;;;;;;;5.95;4.80;;;;;;;;;;6234303;28;20056;-83
2023/07/08 16:52:02;;;;;;;;;;;;;;;;;;6205156;28;20595;-85
2023/07/08 16:55:09;;;;;;;7.32;5.70;;;;;;;;;;6210357;28;19964;-82
2023/07/08 16:58:11;;;;;;;6.50;4.40;;;;;;;;;;6217536;28;20045;-84
2023/07/08 17:01:19;;;;;;;7.90;4.80;;;;;;;;;;6217605;28;20209;-81
2023/07/08 17:04:21;;;;;;;8.63;4.70;;;;;;;;;;6197629;28;20096;-82
2023/07/08 17:07:23;;;;;;;7.57;5.00;;;;;;;;;;6219095;28;20045;-81
2023/07/08 17:10:25;;;;;;;6.88;4.63;;;;;;;;;;6220326;28;20097;-80
2023/07/08 17:13:26;;;;;;;5.95;4.68;;;;;;;;;;6215447;28;20065;-83
2023/07/08 17:16:32;;;;;;;9.00;4.90;;;;;;;;;;6217230;28;20067;-84
2023/07/08 17:19:34;;;;;;;8.90;5.40;;;;;;;;;;6222823;28;20073;-86
2023/07/08 17:22:36;;;;;;;6.50;5.18;;;;;;;;;;6224478;28;20045;-83
2023/07/08 17:25:40;;;;;;;10.73;4.63;;;;;;;;;;6236707;28;20060;-86
2023/07/08 17:28:42;;;;;;;6.93;4.28;;;;;;;;;;6232221;28;20050;-86
2023/07/08 17:31:44;;;;;;;8.75;4.60;;;;;;;;;;6223016;28;20050;-84
2023/07/08 17:34:49;;;;;;;7.95;4.60;;;;;;;;;;6204445;28;20041;-85
2023/07/08 17:37:51;;;;;;;6.45;4.80;;;;;;;;;;6219877;28;20053;-80
2023/07/08 17:40:53;;;;;;;5.85;4.57;;;;;;;;;;6216629;28;20042;-83
2023/07/08 17:43:54;;;;;;;8.35;4.50;;;;;;;;;;6216339;28;20053;-81
2023/07/08 17:46:57;;;;;;;7.57;4.85;;;;;;;;;;6215446;28;20101;-81
2023/07/08 17:49:59;;;;;;;8.45;4.80;;;;;;;;;;6209797;28;20050;-81
2023/07/08 17:53:01;;;;;;;7.07;4.85;;;;;;;;;;6216998;28;20046;-81
2023/07/08 17:56:02;;;;;;;7.85;4.13;;;;;;;;;;6219689;28;20405;-84
2023/07/08 17:59:12;;;;;;;6.05;4.47;;;;;;;;;;6217224;28;20045;-80
2023/07/08 18:02:16;;;;;;;7.25;4.63;;;;;;;;;;6226915;28;20050;-81
2023/07/08 18:05:27;;;;;;;6.85;4.38;;;;;;;;;;6213229;28;20069;-84
2023/07/08 18:08:29;;;;;;;7.18;4.90;;;;;;;;;;6216640;28;20041;-88
2023/07/08 18:11:32;;;;;;;;;;;;;;;;;;6217809;28;20050;-77
2023/07/08 18:14:34;;;;;;;8.70;5.00;;;;;;;;;;6213663;28;19929;-78
2023/07/08 18:17:35;;;;;;;6.72;5.00;;;;;;;;;;6194016;28;20504;-78
2023/07/08 18:20:40;;;;;;;7.05;4.72;;;;;;;;;;6218364;28;20065;-78
2023/07/08 18:23:43;;;;;;;8.15;4.97;;;;;;;;;;6214987;28;20054;-78
2023/07/08 18:26:44;;;;;;;7.57;4.60;;;;;;;;;;6213870;28;20455;-77
2023/07/08 18:29:46;;;;;;;6.63;5.05;;;;;;;;;;6215962;28;20065;-78
2023/07/08 18:32:50;;;;;;;11.98;5.65;;;;;;;;;;6216135;28;20041;-78
2023/07/08 18:35:52;;;;;;;9.63;4.90;;;;;;;;;;6210642;28;20046;-82